sensor_id;sensor_type;location;lat;lon;timestamp;pressure;altitude;pressure_sealevel;temperature;humidity
25430;BME280;13360;48.152;-1.788;2023-04-15T00:01:01;101651.81;;;11.65;100.00
25430;BME280;13360;48.152;-1.788;2023-04-15T00:03:26;101626.97;;;11.54;100.00
25430;BME280;13360;48.152;-1.788;2023-04-15T00:05:52;101638.25;;;11.63;100.00
25430;BME280;13360;48.152;-1.788;2023-04-15T00:08:17;101631.31;;;11.66;100.00
25430;BME280;13360;48.152;-1.788;2023-04-15T00:10:43;101638.53;;;11.72;100.00
25430;BME280;13360;48.152;-1.788;2023-04-15T00:13:10;101631.31;;;11.76;100.00
25430;BME280;13360;48.152;-1.788;2023-04-15T00:15:35;101619.69;;;11.74;100.00
25430;BME280;13360;48.152;-1.788;2023-04-15T00:18:01;101609.19;;;11.71;100.00
25430;BME280;13360;48.152;-1.788;2023-04-15T00:20:27;101592.59;;;11.71;100.00
25430;BME280;13360;48.152;-1.788;2023-04-15T00:22:52;101590.09;;;11.64;100.00
25430;BME280;13360;48.152;-1.788;2023-04-15T00:25:17;101566.66;;;11.51;100.00
25430;BME280;13360;48.152;-1.788;2023-04-15T00:27:42;101544.00;;;11.39;100.00
25430;BME280;13360;48.152;-1.788;2023-04-15T00:30:08;101563.88;;;11.56;100.00
25430;BME280;13360;48.152;-1.788;2023-04-15T00:32:33;101544.25;;;11.53;100.00
25430;BME280;13360;48.152;-1.788;2023-04-15T00:34:58;101529.06;;;11.45;100.00
25430;BME280;13360;48.152;-1.788;2023-04-15T00:37:24;101510.28;;;11.37;100.00
25430;BME280;13360;48.152;-1.788;2023-04-15T00:39:49;101512.47;;;11.45;100.00
25430;BME280;13360;48.152;-1.788;2023-04-15T00:42:15;101493.66;;;11.42;100.00
25430;BME280;13360;48.152;-1.788;2023-04-15T00:44:40;101458.63;;;11.22;100.00
25430;BME280;13360;48.152;-1.788;2023-04-15T00:47:06;101464.38;;;11.36;100.00
25430;BME280;13360;48.152;-1.788;2023-04-15T00:49:32;101431.25;;;11.26;100.00
25430;BME280;13360;48.152;-1.788;2023-04-15T00:51:57;101410.25;;;11.20;100.00
25430;BME280;13360;48.152;-1.788;2023-04-15T00:54:22;101397.25;;;11.20;100.00
25430;BME280;13360;48.152;-1.788;2023-04-15T00:56:47;101379.28;;;11.18;100.00
25430;BME280;13360;48.152;-1.788;2023-04-15T00:59:13;101346.75;;;10.99;100.00
25430;BME280;13360;48.152;-1.788;2023-04-15T01:01:38;101361.88;;;11.17;100.00
25430;BME280;13360;48.152;-1.788;2023-04-15T01:04:04;101357.69;;;11.25;100.00
25430;BME280;13360;48.152;-1.788;2023-04-15T01:06:31;101341.16;;;11.15;100.00
25430;BME280;13360;48.152;-1.788;2023-04-15T01:08:56;101327.91;;;11.12;100.00
25430;BME280;13360;48.152;-1.788;2023-04-15T01:11:22;101316.88;;;11.07;100.00
25430;BME280;13360;48.152;-1.788;2023-04-15T01:13:49;101299.16;;;11.13;100.00
25430;BME280;13360;48.152;-1.788;2023-04-15T01:16:14;101291.09;;;11.16;100.00
25430;BME280;13360;48.152;-1.788;2023-04-15T01:18:40;101259.41;;;11.04;100.00
25430;BME280;13360;48.152;-1.788;2023-04-15T01:21:06;101248.06;;;11.00;100.00
25430;BME280;13360;48.152;-1.788;2023-04-15T01:23:32;101242.84;;;10.98;100.00
25430;BME280;13360;48.152;-1.788;2023-04-15T01:25:58;101245.03;;;11.02;100.00
25430;BME280;13360;48.152;-1.788;2023-04-15T01:28:23;101243.09;;;11.02;100.00
25430;BME280;13360;48.152;-1.788;2023-04-15T01:30:49;101234.25;;;11.00;100.00
25430;BME280;13360;48.152;-1.788;2023-04-15T01:33:14;101243.66;;;10.99;100.00
25430;BME280;13360;48.152;-1.788;2023-04-15T01:35:40;101232.06;;;10.97;100.00
25430;BME280;13360;48.152;-1.788;2023-04-15T01:38:08;101231.28;;;10.91;100.00
25430;BME280;13360;48.152;-1.788;2023-04-15T01:40:34;101214.47;;;10.88;100.00
25430;BME280;13360;48.152;-1.788;2023-04-15T01:42:59;101221.31;;;10.95;100.00
25430;BME280;13360;48.152;-1.788;2023-04-15T01:45:25;101216.34;;;10.92;100.00
25430;BME280;13360;48.152;-1.788;2023-04-15T01:47:50;101213.63;;;10.87;100.00
25430;BME280;13360;48.152;-1.788;2023-04-15T01:50:15;101214.19;;;10.89;100.00
25430;BME280;13360;48.152;-1.788;2023-04-15T01:52:41;101216.66;;;10.91;100.00
25430;BME280;13360;48.152;-1.788;2023-04-15T01:55:06;101211.16;;;10.86;100.00
25430;BME280;13360;48.152;-1.788;2023-04-15T01:57:32;101228.03;;;10.84;100.00
25430;BME280;13360;48.152;-1.788;2023-04-15T01:59:58;101220.81;;;10.88;100.00
25430;BME280;13360;48.152;-1.788;2023-04-15T02:02:23;101217.22;;;10.88;100.00
25430;BME280;13360;48.152;-1.788;2023-04-15T02:04:48;101211.16;;;10.86;100.00
25430;BME280;13360;48.152;-1.788;2023-04-15T02:07:14;101215.06;;;10.80;100.00
25430;BME280;13360;48.152;-1.788;2023-04-15T02:09:39;101209.81;;;10.78;100.00
25430;BME280;13360;48.152;-1.788;2023-04-15T02:12:05;101203.47;;;10.78;100.00
25430;BME280;13360;48.152;-1.788;2023-04-15T02:14:30;101203.47;;;10.78;100.00
25430;BME280;13360;48.152;-1.788;2023-04-15T02:16:55;101212.56;;;10.78;100.00
25430;BME280;13360;48.152;-1.788;2023-04-15T02:19:21;101210.41;;;10.75;100.00
25430;BME280;13360;48.152;-1.788;2023-04-15T02:21:46;101218.69;;;10.75;100.00
25430;BME280;13360;48.152;-1.788;2023-04-15T02:24:11;101220.38;;;10.71;100.00
25430;BME280;13360;48.152;-1.788;2023-04-15T02:26:36;101224.53;;;10.68;100.00
25430;BME280;13360;48.152;-1.788;2023-04-15T02:29:02;101228.13;;;10.69;100.00
25430;BME280;13360;48.152;-1.788;2023-04-15T02:31:27;101244.16;;;10.67;100.00
25430;BME280;13360;48.152;-1.788;2023-04-15T02:33:52;101244.44;;;10.65;100.00
25430;BME280;13360;48.152;-1.788;2023-04-15T02:36:17;101249.97;;;10.65;100.00
25430;BME280;13360;48.152;-1.788;2023-04-15T02:38:43;101245.56;;;10.64;100.00
25430;BME280;13360;48.152;-1.788;2023-04-15T02:41:09;101251.38;;;10.63;100.00
25430;BME280;13360;48.152;-1.788;2023-04-15T02:43:34;101254.44;;;10.56;100.00
25430;BME280;13360;48.152;-1.788;2023-04-15T02:45:59;101255.78;;;10.59;100.00
25430;BME280;13360;48.152;-1.788;2023-04-15T02:48:25;101274.00;;;10.60;100.00
25430;BME280;13360;48.152;-1.788;2023-04-15T02:50:51;101267.66;;;10.59;100.00
25430;BME280;13360;48.152;-1.788;2023-04-15T02:53:16;101279.00;;;10.58;100.00
25430;BME280;13360;48.152;-1.788;2023-04-15T02:55:41;101279.56;;;10.55;100.00
25430;BME280;13360;48.152;-1.788;2023-04-15T02:58:06;101282.91;;;10.52;100.00
25430;BME280;13360;48.152;-1.788;2023-04-15T03:00:32;101296.44;;;10.53;100.00
25430;BME280;13360;48.152;-1.788;2023-04-15T03:02:58;101290.66;;;10.50;100.00
25430;BME280;13360;48.152;-1.788;2023-04-15T03:05:23;101292.31;;;10.46;100.00
25430;BME280;13360;48.152;-1.788;2023-04-15T03:07:49;101300.63;;;10.46;100.00
25430;BME280;13360;48.152;-1.788;2023-04-15T03:10:15;101311.09;;;10.49;100.00
25430;BME280;13360;48.152;-1.788;2023-04-15T03:12:40;101306.72;;;10.43;100.00
25430;BME280;13360;48.152;-1.788;2023-04-15T03:15:05;101313.06;;;10.38;100.00
25430;BME280;13360;48.152;-1.788;2023-04-15T03:17:31;101334.59;;;10.41;100.00
25430;BME280;13360;48.152;-1.788;2023-04-15T03:19:56;101334.03;;;10.39;100.00
25430;BME280;13360;48.152;-1.788;2023-04-15T03:22:21;101350.31;;;10.41;100.00
25430;BME280;13360;48.152;-1.788;2023-04-15T03:24:46;101352.00;;;10.42;100.00
25430;BME280;13360;48.152;-1.788;2023-04-15T03:27:12;101359.47;;;10.41;100.00
25430;BME280;13360;48.152;-1.788;2023-04-15T03:29:37;101359.47;;;10.41;100.00
25430;BME280;13360;48.152;-1.788;2023-04-15T03:32:03;101368.00;;;10.39;100.00
25430;BME280;13360;48.152;-1.788;2023-04-15T03:34:28;101365.81;;;10.36;100.00
25430;BME280;13360;48.152;-1.788;2023-04-15T03:36:53;101381.00;;;10.34;100.00
25430;BME280;13360;48.152;-1.788;2023-04-15T03:39:18;101380.72;;;10.30;100.00
25430;BME280;13360;48.152;-1.788;2023-04-15T03:41:44;101396.22;;;10.26;100.00
25430;BME280;13360;48.152;-1.788;2023-04-15T03:44:09;101402.56;;;10.27;100.00
25430;BME280;13360;48.152;-1.788;2023-04-15T03:46:35;101409.47;;;10.24;100.00
25430;BME280;13360;48.152;-1.788;2023-04-15T03:49:00;101418.00;;;10.28;100.00
25430;BME280;13360;48.152;-1.788;2023-04-15T03:51:26;101420.50;;;10.29;100.00
25430;BME280;13360;48.152;-1.788;2023-04-15T03:53:51;101437.06;;;10.29;100.00
25430;BME280;13360;48.152;-1.788;2023-04-15T03:56:16;101442.88;;;10.28;100.00
25430;BME280;13360;48.152;-1.788;2023-04-15T03:58:41;101453.09;;;10.27;100.00
25430;BME280;13360;48.152;-1.788;2023-04-15T04:01:07;101452.25;;;10.27;100.00
25430;BME280;13360;48.152;-1.788;2023-04-15T04:03:32;101461.66;;;10.26;100.00
25430;BME280;13360;48.152;-1.788;2023-04-15T04:05:57;101467.16;;;10.26;100.00
25430;BME280;13360;48.152;-1.788;2023-04-15T04:08:23;101468.00;;;10.21;100.00
25430;BME280;13360;48.152;-1.788;2023-04-15T04:10:48;101475.47;;;10.21;100.00
25430;BME280;13360;48.152;-1.788;2023-04-15T04:13:13;101474.03;;;10.18;100.00
25430;BME280;13360;48.152;-1.788;2023-04-15T04:15:38;101473.47;;;10.11;100.00
25430;BME280;13360;48.152;-1.788;2023-04-15T04:18:03;101486.19;;;10.12;100.00
25430;BME280;13360;48.152;-1.788;2023-04-15T04:20:29;101497.50;;;10.11;100.00
25430;BME280;13360;48.152;-1.788;2023-04-15T04:22:56;101496.66;;;10.05;100.00
25430;BME280;13360;48.152;-1.788;2023-04-15T04:25:21;101502.19;;;10.00;100.00
25430;BME280;13360;48.152;-1.788;2023-04-15T04:27:46;101514.88;;;10.01;100.00
25430;BME280;13360;48.152;-1.788;2023-04-15T04:30:11;101527.28;;;9.98;100.00
25430;BME280;13360;48.152;-1.788;2023-04-15T04:32:37;101538.31;;;9.98;100.00
25430;BME280;13360;48.152;-1.788;2023-04-15T04:35:02;101549.66;;;10.02;100.00
25430;BME280;13360;48.152;-1.788;2023-04-15T04:37:28;101551.31;;;10.03;100.00
25430;BME280;13360;48.152;-1.788;2023-04-15T04:39:53;101573.41;;;10.08;100.00
25430;BME280;13360;48.152;-1.788;2023-04-15T04:42:19;101569.53;;;10.09;100.00
25430;BME280;13360;48.152;-1.788;2023-04-15T04:44:44;101581.41;;;10.09;100.00
25430;BME280;13360;48.152;-1.788;2023-04-15T04:47:10;101596.03;;;10.05;100.00
25430;BME280;13360;48.152;-1.788;2023-04-15T04:49:35;101608.72;;;10.01;100.00
25430;BME280;13360;48.152;-1.788;2023-04-15T04:52:00;101621.44;;;10.02;100.00
25430;BME280;13360;48.152;-1.788;2023-04-15T04:54:26;101641.53;;;9.97;100.00
25430;BME280;13360;48.152;-1.788;2023-04-15T04:56:51;101663.88;;;9.91;100.00
25430;BME280;13360;48.152;-1.788;2023-04-15T04:59:17;101680.16;;;9.92;100.00
25430;BME280;13360;48.152;-1.788;2023-04-15T05:01:42;101684.88;;;9.97;100.00
25430;BME280;13360;48.152;-1.788;2023-04-15T05:04:07;101705.28;;;9.96;100.00
25430;BME280;13360;48.152;-1.788;2023-04-15T05:06:32;101735.16;;;10.04;100.00
25430;BME280;13360;48.152;-1.788;2023-04-15T05:08:59;101733.78;;;10.06;100.00
25430;BME280;13360;48.152;-1.788;2023-04-15T05:11:25;101758.06;;;10.04;100.00
25430;BME280;13360;48.152;-1.788;2023-04-15T05:13:50;101771.78;;;9.89;100.00
25430;BME280;13360;48.152;-1.788;2023-04-15T05:16:15;101795.25;;;9.97;100.00
25430;BME280;13360;48.152;-1.788;2023-04-15T05:18:41;101814.56;;;9.92;100.00
25430;BME280;13360;48.152;-1.788;2023-04-15T05:21:06;101826.19;;;9.99;100.00
25430;BME280;13360;48.152;-1.788;2023-04-15T05:23:32;101848.31;;;10.04;100.00
25430;BME280;13360;48.152;-1.788;2023-04-15T05:25:57;101869.31;;;10.05;100.00
25430;BME280;13360;48.152;-1.788;2023-04-15T05:28:22;101870.94;;;10.01;100.00
25430;BME280;13360;48.152;-1.788;2023-04-15T05:30:48;101887.50;;;10.01;100.00
25430;BME280;13360;48.152;-1.788;2023-04-15T05:33:13;101913.88;;;9.87;100.00
25430;BME280;13360;48.152;-1.788;2023-04-15T05:35:38;101934.31;;;9.91;100.00
25430;BME280;13360;48.152;-1.788;2023-04-15T05:38:03;101951.91;;;9.80;100.00
25430;BME280;13360;48.152;-1.788;2023-04-15T05:40:29;101977.88;;;9.84;100.00
25430;BME280;13360;48.152;-1.788;2023-04-15T05:42:54;101999.97;;;9.84;100.00
25430;BME280;13360;48.152;-1.788;2023-04-15T05:45:20;102037.59;;;9.95;100.00
25430;BME280;13360;48.152;-1.788;2023-04-15T05:47:45;102040.34;;;9.95;100.00
25430;BME280;13360;48.152;-1.788;2023-04-15T05:50:10;102069.09;;;9.99;100.00
25430;BME280;13360;48.152;-1.788;2023-04-15T05:52:36;102081.28;;;10.03;100.00
25430;BME280;13360;48.152;-1.788;2023-04-15T05:55:01;102098.44;;;10.05;100.00
25430;BME280;13360;48.152;-1.788;2023-04-15T05:57:26;102112.03;;;10.12;100.00
25430;BME280;13360;48.152;-1.788;2023-04-15T05:59:51;102125.25;;;10.09;100.00
25430;BME280;13360;48.152;-1.788;2023-04-15T06:02:17;102142.13;;;10.13;100.00
25430;BME280;13360;48.152;-1.788;2023-04-15T06:04:42;102158.16;;;10.16;100.00
25430;BME280;13360;48.152;-1.788;2023-04-15T06:07:08;102186.34;;;10.18;100.00
25430;BME280;13360;48.152;-1.788;2023-04-15T06:09:33;102191.03;;;10.18;100.00
25430;BME280;13360;48.152;-1.788;2023-04-15T06:11:58;102221.41;;;10.18;100.00
25430;BME280;13360;48.152;-1.788;2023-04-15T06:14:24;102244.72;;;10.22;100.00
25430;BME280;13360;48.152;-1.788;2023-04-15T06:16:49;102267.38;;;10.24;100.00
25430;BME280;13360;48.152;-1.788;2023-04-15T06:19:14;102311.00;;;10.22;100.00
25430;BME280;13360;48.152;-1.788;2023-04-15T06:21:39;102334.06;;;10.16;100.00
25430;BME280;13360;48.152;-1.788;2023-04-15T06:24:05;102363.66;;;10.20;100.00
25430;BME280;13360;48.152;-1.788;2023-04-15T06:26:31;102403.03;;;10.27;100.00
25430;BME280;13360;48.152;-1.788;2023-04-15T06:28:56;102416.97;;;10.37;100.00
25430;BME280;13360;48.152;-1.788;2023-04-15T06:31:21;102431.03;;;10.36;100.00
25430;BME280;13360;48.152;-1.788;2023-04-15T06:33:46;102450.69;;;10.39;100.00
25430;BME280;13360;48.152;-1.788;2023-04-15T06:36:12;102477.47;;;10.39;100.00
25430;BME280;13360;48.152;-1.788;2023-04-15T06:38:37;102492.75;;;10.42;100.00
25430;BME280;13360;48.152;-1.788;2023-04-15T06:41:03;102514.97;;;10.52;100.00
25430;BME280;13360;48.152;-1.788;2023-04-15T06:43:28;102526.88;;;10.52;100.00
25430;BME280;13360;48.152;-1.788;2023-04-15T06:45:54;102554.81;;;10.56;100.00
25430;BME280;13360;48.152;-1.788;2023-04-15T06:48:19;102568.22;;;10.64;100.00
25430;BME280;13360;48.152;-1.788;2023-04-15T06:50:44;102573.31;;;10.72;100.00
25430;BME280;13360;48.152;-1.788;2023-04-15T06:53:09;102584.69;;;10.76;100.00
25430;BME280;13360;48.152;-1.788;2023-04-15T06:55:34;102602.13;;;10.76;100.00
25430;BME280;13360;48.152;-1.788;2023-04-15T06:58:00;102624.16;;;10.71;100.00
25430;BME280;13360;48.152;-1.788;2023-04-15T07:00:25;102644.28;;;10.83;100.00
25430;BME280;13360;48.152;-1.788;2023-04-15T07:02:52;102642.94;;;10.86;100.00
25430;BME280;13360;48.152;-1.788;2023-04-15T07:05:17;102668.22;;;10.94;100.00
25430;BME280;13360;48.152;-1.788;2023-04-15T07:07:43;102671.56;;;10.96;100.00
25430;BME280;13360;48.152;-1.788;2023-04-15T07:10:09;102698.13;;;10.97;100.00
25430;BME280;13360;48.152;-1.788;2023-04-15T07:12:36;102714.31;;;11.06;100.00
25430;BME280;13360;48.152;-1.788;2023-04-15T07:15:01;102714.63;;;11.09;100.00
25430;BME280;13360;48.152;-1.788;2023-04-15T07:17:26;102742.09;;;11.16;100.00
25430;BME280;13360;48.152;-1.788;2023-04-15T07:19:51;102756.00;;;11.21;100.00
25430;BME280;13360;48.152;-1.788;2023-04-15T07:22:17;102758.53;;;11.22;100.00
25430;BME280;13360;48.152;-1.788;2023-04-15T07:24:42;102777.22;;;11.32;100.00
25430;BME280;13360;48.152;-1.788;2023-04-15T07:27:07;102787.88;;;11.40;100.00
25430;BME280;13360;48.152;-1.788;2023-04-15T07:29:33;102805.41;;;11.46;100.00
25430;BME280;13360;48.152;-1.788;2023-04-15T07:31:58;102811.84;;;11.51;100.00
25430;BME280;13360;48.152;-1.788;2023-04-15T07:34:23;102836.31;;;11.59;100.00
25430;BME280;13360;48.152;-1.788;2023-04-15T07:36:49;102840.00;;;11.65;100.00
25430;BME280;13360;48.152;-1.788;2023-04-15T07:39:17;102831.81;;;11.70;100.00
25430;BME280;13360;48.152;-1.788;2023-04-15T07:41:42;102823.56;;;11.75;100.00
25430;BME280;13360;48.152;-1.788;2023-04-15T07:44:07;102839.50;;;11.85;100.00
25430;BME280;13360;48.152;-1.788;2023-04-15T07:46:33;102845.72;;;11.92;100.00
25430;BME280;13360;48.152;-1.788;2023-04-15T07:48:58;102856.94;;;12.02;100.00
25430;BME280;13360;48.152;-1.788;2023-04-15T07:51:23;102850.72;;;12.12;100.00
25430;BME280;13360;48.152;-1.788;2023-04-15T07:53:49;102816.94;;;12.15;100.00
25430;BME280;13360;48.152;-1.788;2023-04-15T07:56:14;102786.84;;;12.24;100.00
25430;BME280;13360;48.152;-1.788;2023-04-15T07:58:39;102764.28;;;12.37;100.00
25430;BME280;13360;48.152;-1.788;2023-04-15T08:01:05;102738.34;;;12.48;100.00
25430;BME280;13360;48.152;-1.788;2023-04-15T08:03:30;102694.38;;;12.57;100.00
25430;BME280;13360;48.152;-1.788;2023-04-15T08:05:56;102652.50;;;12.53;100.00
25430;BME280;13360;48.152;-1.788;2023-04-15T08:08:22;102640.59;;;12.58;100.00
25430;BME280;13360;48.152;-1.788;2023-04-15T08:10:47;102616.78;;;12.62;100.00
25430;BME280;13360;48.152;-1.788;2023-04-15T08:13:12;102618.91;;;12.87;100.00
25430;BME280;13360;48.152;-1.788;2023-04-15T08:15:38;102587.50;;;12.71;100.00
25430;BME280;13360;48.152;-1.788;2023-04-15T08:18:03;102570.94;;;12.86;100.00
25430;BME280;13360;48.152;-1.788;2023-04-15T08:20:28;102535.09;;;12.74;100.00
25430;BME280;13360;48.152;-1.788;2023-04-15T08:22:54;102546.06;;;12.96;100.00
25430;BME280;13360;48.152;-1.788;2023-04-15T08:25:19;102558.13;;;13.22;100.00
25430;BME280;13360;48.152;-1.788;2023-04-15T08:27:45;102527.56;;;13.12;100.00
25430;BME280;13360;48.152;-1.788;2023-04-15T08:30:10;102483.38;;;12.95;100.00
25430;BME280;13360;48.152;-1.788;2023-04-15T08:32:36;102453.13;;;12.94;100.00
25430;BME280;13360;48.152;-1.788;2023-04-15T08:35:01;102438.66;;;12.87;100.00
25430;BME280;13360;48.152;-1.788;2023-04-15T08:37:27;102476.56;;;13.28;100.00
25430;BME280;13360;48.152;-1.788;2023-04-15T08:39:52;102438.59;;;13.39;100.00
25430;BME280;13360;48.152;-1.788;2023-04-15T08:42:18;102405.53;;;13.22;100.00
25430;BME280;13360;48.152;-1.788;2023-04-15T08:44:47;102373.34;;;13.31;100.00
25430;BME280;13360;48.152;-1.788;2023-04-15T08:47:13;102359.47;;;13.26;100.00
25430;BME280;13360;48.152;-1.788;2023-04-15T08:49:41;102321.09;;;13.08;100.00
25430;BME280;13360;48.152;-1.788;2023-04-15T08:52:07;102241.78;;;12.97;100.00
25430;BME280;13360;48.152;-1.788;2023-04-15T08:54:33;102211.81;;;12.99;100.00
25430;BME280;13360;48.152;-1.788;2023-04-15T08:56:58;102156.91;;;12.80;100.00
25430;BME280;13360;48.152;-1.788;2023-04-15T08:59:24;102199.34;;;13.42;100.00
25430;BME280;13360;48.152;-1.788;2023-04-15T09:01:49;102201.34;;;14.06;100.00
25430;BME280;13360;48.152;-1.788;2023-04-15T09:04:15;102192.34;;;14.74;100.00
25430;BME280;13360;48.152;-1.788;2023-04-15T09:06:41;102142.59;;;15.30;100.00
25430;BME280;13360;48.152;-1.788;2023-04-15T09:09:06;102117.19;;;15.84;100.00
25430;BME280;13360;48.152;-1.788;2023-04-15T09:11:32;102022.41;;;16.22;100.00
25430;BME280;13360;48.152;-1.788;2023-04-15T09:13:57;101947.09;;;16.73;100.00
25430;BME280;13360;48.152;-1.788;2023-04-15T09:16:22;101877.09;;;16.97;100.00
25430;BME280;13360;48.152;-1.788;2023-04-15T09:18:48;101841.28;;;17.49;100.00
25430;BME280;13360;48.152;-1.788;2023-04-15T09:21:14;101804.59;;;17.42;100.00
25430;BME280;13360;48.152;-1.788;2023-04-15T09:26:29;101749.25;;;17.22;100.00
25430;BME280;13360;48.152;-1.788;2023-04-15T09:28:54;101736.69;;;17.64;100.00
25430;BME280;13360;48.152;-1.788;2023-04-15T09:31:28;101717.63;;;16.68;100.00
25430;BME280;13360;48.152;-1.788;2023-04-15T09:33:54;101716.47;;;16.69;100.00
25430;BME280;13360;48.152;-1.788;2023-04-15T09:36:20;101718.41;;;17.04;100.00
25430;BME280;13360;48.152;-1.788;2023-04-15T09:38:55;101710.19;;;17.75;100.00
25430;BME280;13360;48.152;-1.788;2023-04-15T09:41:21;101696.31;;;18.10;100.00
25430;BME280;13360;48.152;-1.788;2023-04-15T09:43:47;101695.91;;;18.51;100.00
25430;BME280;13360;48.152;-1.788;2023-04-15T09:46:12;101723.94;;;19.29;100.00
25430;BME280;13360;48.152;-1.788;2023-04-15T09:48:37;101687.41;;;18.91;100.00
25430;BME280;13360;48.152;-1.788;2023-04-15T09:51:03;101678.34;;;18.85;100.00
25430;BME280;13360;48.152;-1.788;2023-04-15T09:53:28;101692.59;;;19.35;100.00
25430;BME280;13360;48.152;-1.788;2023-04-15T09:55:57;101691.63;;;19.31;100.00
25430;BME280;13360;48.152;-1.788;2023-04-15T09:58:26;101671.00;;;19.44;100.00
25430;BME280;13360;48.152;-1.788;2023-04-15T10:00:52;101667.16;;;18.68;100.00
25430;BME280;13360;48.152;-1.788;2023-04-15T10:03:19;101681.66;;;18.04;100.00
25430;BME280;13360;48.152;-1.788;2023-04-15T10:05:46;101697.41;;;17.60;100.00
25430;BME280;13360;48.152;-1.788;2023-04-15T10:08:12;101732.31;;;17.18;100.00
25430;BME280;13360;48.152;-1.788;2023-04-15T10:10:37;101710.97;;;16.77;100.00
25430;BME280;13360;48.152;-1.788;2023-04-15T10:13:03;101760.56;;;16.81;100.00
25430;BME280;13360;48.152;-1.788;2023-04-15T10:15:29;101703.13;;;16.66;100.00
25430;BME280;13360;48.152;-1.788;2023-04-15T10:17:55;101709.31;;;16.63;100.00
25430;BME280;13360;48.152;-1.788;2023-04-15T10:20:22;101764.09;;;16.59;100.00
25430;BME280;13360;48.152;-1.788;2023-04-15T10:22:48;101782.66;;;16.63;100.00
25430;BME280;13360;48.152;-1.788;2023-04-15T10:25:14;101748.84;;;16.29;100.00
25430;BME280;13360;48.152;-1.788;2023-04-15T10:27:39;101767.50;;;16.42;100.00
25430;BME280;13360;48.152;-1.788;2023-04-15T10:30:06;101707.34;;;16.27;100.00
25430;BME280;13360;48.152;-1.788;2023-04-15T10:32:33;101722.81;;;16.33;100.00
25430;BME280;13360;48.152;-1.788;2023-04-15T10:34:58;101744.72;;;16.26;100.00
25430;BME280;13360;48.152;-1.788;2023-04-15T10:37:35;101736.75;;;16.20;100.00
25430;BME280;13360;48.152;-1.788;2023-04-15T10:40:12;101738.72;;;16.19;100.00
25430;BME280;13360;48.152;-1.788;2023-04-15T10:42:46;101754.00;;;15.94;100.00
25430;BME280;13360;48.152;-1.788;2023-04-15T10:45:15;101745.84;;;15.98;100.00
25430;BME280;13360;48.152;-1.788;2023-04-15T10:47:41;101816.03;;;16.13;100.00
25430;BME280;13360;48.152;-1.788;2023-04-15T10:50:07;101782.09;;;16.25;100.00
25430;BME280;13360;48.152;-1.788;2023-04-15T10:52:33;101764.13;;;16.04;100.00
25430;BME280;13360;48.152;-1.788;2023-04-15T10:57:34;101784.97;;;16.20;100.00
25430;BME280;13360;48.152;-1.788;2023-04-15T11:00:03;101767.63;;;16.23;100.00
25430;BME280;13360;48.152;-1.788;2023-04-15T11:02:39;101795.31;;;16.33;100.00
25430;BME280;13360;48.152;-1.788;2023-04-15T11:05:05;101835.97;;;16.34;100.00
25430;BME280;13360;48.152;-1.788;2023-04-15T11:10:03;101764.13;;;16.31;100.00
25430;BME280;13360;48.152;-1.788;2023-04-15T11:12:34;101763.50;;;16.21;100.00
25430;BME280;13360;48.152;-1.788;2023-04-15T11:15:23;101771.47;;;16.27;100.00
25430;BME280;13360;48.152;-1.788;2023-04-15T11:17:46;101797.38;;;16.28;100.00
25430;BME280;13360;48.152;-1.788;2023-04-15T11:20:13;101788.50;;;16.26;100.00
25430;BME280;13360;48.152;-1.788;2023-04-15T11:22:45;101764.75;;;16.14;100.00
25430;BME280;13360;48.152;-1.788;2023-04-15T11:25:20;101782.19;;;16.06;100.00
25430;BME280;13360;48.152;-1.788;2023-04-15T11:27:46;101799.22;;;16.19;100.00
25430;BME280;13360;48.152;-1.788;2023-04-15T11:30:18;101785.91;;;16.15;100.00
25430;BME280;13360;48.152;-1.788;2023-04-15T11:32:44;101756.56;;;16.18;100.00
25430;BME280;13360;48.152;-1.788;2023-04-15T11:35:10;101793.13;;;16.30;100.00
25430;BME280;13360;48.152;-1.788;2023-04-15T11:37:35;101777.53;;;16.15;100.00
25430;BME280;13360;48.152;-1.788;2023-04-15T11:40:01;101773.13;;;16.28;100.00
25430;BME280;13360;48.152;-1.788;2023-04-15T11:42:27;101772.78;;;16.16;100.00
25430;BME280;13360;48.152;-1.788;2023-04-15T11:45:05;101809.34;;;16.28;100.00
25430;BME280;13360;48.152;-1.788;2023-04-15T11:47:30;101841.75;;;16.38;100.00
25430;BME280;13360;48.152;-1.788;2023-04-15T11:49:55;101788.19;;;16.27;100.00
25430;BME280;13360;48.152;-1.788;2023-04-15T11:52:20;101789.72;;;16.06;100.00
25430;BME280;13360;48.152;-1.788;2023-04-15T11:54:46;101829.56;;;16.20;100.00
25430;BME280;13360;48.152;-1.788;2023-04-15T11:57:12;101773.50;;;15.94;100.00
25430;BME280;13360;48.152;-1.788;2023-04-15T11:59:43;101831.00;;;16.17;100.00
25430;BME280;13360;48.152;-1.788;2023-04-15T12:02:12;101794.84;;;15.99;100.00
25430;BME280;13360;48.152;-1.788;2023-04-15T12:04:38;101784.84;;;15.98;100.00
25430;BME280;13360;48.152;-1.788;2023-04-15T12:07:03;101829.75;;;15.96;100.00
25430;BME280;13360;48.152;-1.788;2023-04-15T12:09:28;101825.19;;;16.00;100.00
25430;BME280;13360;48.152;-1.788;2023-04-15T12:11:56;101787.63;;;15.98;100.00
25430;BME280;13360;48.152;-1.788;2023-04-15T12:14:30;101799.59;;;15.84;100.00
25430;BME280;13360;48.152;-1.788;2023-04-15T12:17:00;101835.81;;;15.84;100.00
25430;BME280;13360;48.152;-1.788;2023-04-15T12:21:58;101854.41;;;16.03;100.00
25430;BME280;13360;48.152;-1.788;2023-04-15T12:24:24;101832.13;;;16.03;100.00
25430;BME280;13360;48.152;-1.788;2023-04-15T12:26:51;101815.69;;;16.01;100.00
25430;BME280;13360;48.152;-1.788;2023-04-15T12:29:17;101809.09;;;15.97;100.00
25430;BME280;13360;48.152;-1.788;2023-04-15T12:31:46;101858.13;;;15.98;100.00
25430;BME280;13360;48.152;-1.788;2023-04-15T12:34:13;101843.16;;;15.94;100.00